createdAt,value
2019-02-04T00:01:21.581Z,99.87
2019-02-04T00:03:49.076Z,96.13
2019-02-04T00:06:16.577Z,113.23
2019-02-04T00:08:44.064Z,101.43
2019-02-04T00:11:11.594Z,95.20
2019-02-04T00:13:39.086Z,104.90
2019-02-04T00:16:06.698Z,102.87
2019-02-04T00:18:34.212Z,101.53
2019-02-04T00:21:02.014Z,92.87
2019-02-04T00:23:29.521Z,110.50
2019-02-04T00:25:57.053Z,117.20
2019-02-04T00:28:24.573Z,107.83
2019-02-04T00:30:52.049Z,109.37
2019-02-04T00:33:19.579Z,102.63
2019-02-04T00:35:47.091Z,104.00
2019-02-04T00:38:14.678Z,100.30
2019-02-04T00:40:42.205Z,82.33
2019-02-04T00:43:09.699Z,89.97
2019-02-04T00:45:37.183Z,97.70
2019-02-04T00:48:04.685Z,95.00
2019-02-04T00:50:32.177Z,95.07
2019-02-04T00:52:59.664Z,105.53
2019-02-04T00:55:27.271Z,93.80
2019-02-04T00:57:54.757Z,90.13
2019-02-04T01:00:27.055Z,97.87
2019-02-04T01:02:54.675Z,92.67
2019-02-04T01:05:22.262Z,91.50
2019-02-04T01:07:49.898Z,87.70
2019-02-04T01:10:20.051Z,95.53
2019-02-04T01:12:48.033Z,100.83
2019-02-04T01:15:15.662Z,91.17
2019-02-04T01:17:43.185Z,86.37
2019-02-04T01:20:12.138Z,84.53
2019-02-04T01:22:39.782Z,86.27
2019-02-04T01:25:08.205Z,74.43
2019-02-04T01:27:35.957Z,71.40
2019-02-04T01:30:04.394Z,64.47
2019-02-04T01:32:31.889Z,72.27
2019-02-04T01:34:59.381Z,59.93
2019-02-04T01:37:26.890Z,53.47
2019-02-04T01:39:54.398Z,61.33
2019-02-04T01:42:22.181Z,55.23
2019-02-04T01:44:49.685Z,56.57
2019-02-04T01:47:17.185Z,61.23
2019-02-04T01:49:44.722Z,54.37
2019-02-04T01:52:12.201Z,53.97
2019-02-04T01:54:39.697Z,47.00
2019-02-04T01:57:07.217Z,50.40
2019-02-04T01:59:34.713Z,45.20
2019-02-04T02:02:02.214Z,48.27
2019-02-04T02:04:29.733Z,39.17
2019-02-04T02:06:57.216Z,30.97
2019-02-04T02:09:24.706Z,31.50
2019-02-04T02:11:52.234Z,27.90
2019-02-04T02:14:20.026Z,27.87
2019-02-04T02:16:48.645Z,25.03
2019-02-04T02:19:16.185Z,31.77
2019-02-04T02:21:43.670Z,26.90
2019-02-04T02:24:11.239Z,23.40
2019-02-04T02:26:38.758Z,21.90
2019-02-04T02:29:06.235Z,25.77
2019-02-04T02:31:33.773Z,24.57
2019-02-04T02:34:01.279Z,24.70
2019-02-04T02:36:28.798Z,30.37
2019-02-04T02:38:56.295Z,27.50
2019-02-04T02:41:23.787Z,25.37
2019-02-04T02:43:51.315Z,20.97
2019-02-04T02:46:18.801Z,22.13
2019-02-04T02:48:46.491Z,22.77
2019-02-04T02:51:13.997Z,20.57
2019-02-04T02:53:41.482Z,24.27
2019-02-04T02:56:08.975Z,16.20
2019-02-04T02:58:36.497Z,19.27
2019-02-04T03:01:04.091Z,19.30
2019-02-04T03:03:31.565Z,20.17
2019-02-04T03:05:59.132Z,19.97
2019-02-04T03:08:26.615Z,18.27
2019-02-04T03:10:54.091Z,19.60
2019-02-04T03:13:21.626Z,19.10
2019-02-04T03:15:49.109Z,19.47
2019-02-04T03:18:16.614Z,24.77
2019-02-04T03:20:44.145Z,17.20
2019-02-04T03:23:11.619Z,16.20
2019-02-04T03:25:39.378Z,14.43
2019-02-04T03:28:06.901Z,21.23
2019-02-04T03:30:34.380Z,15.17
2019-02-04T03:33:01.975Z,13.30
2019-02-04T03:35:29.469Z,17.23
2019-02-04T03:37:57.364Z,14.10
2019-02-04T03:40:26.909Z,16.10
2019-02-04T03:42:54.642Z,14.77
2019-02-04T03:45:22.135Z,12.63
2019-02-04T03:47:49.630Z,11.47
2019-02-04T03:50:17.257Z,14.13
2019-02-04T03:52:44.733Z,13.20
2019-02-04T03:55:13.161Z,11.53
2019-02-04T03:57:40.899Z,16.77
2019-02-04T04:00:17.807Z,11.17
2019-02-04T04:02:45.335Z,12.03
2019-02-04T04:05:12.917Z,11.83
2019-02-04T04:07:40.797Z,14.03
2019-02-04T04:10:09.153Z,15.30
2019-02-04T04:12:36.633Z,13.73
2019-02-04T04:15:04.875Z,12.97
2019-02-04T04:17:32.385Z,14.33
2019-02-04T04:19:59.883Z,11.67
2019-02-04T04:22:27.414Z,14.13
2019-02-04T04:24:55.393Z,9.97
2019-02-04T04:27:22.885Z,9.03
2019-02-04T04:29:50.418Z,12.90
2019-02-04T04:32:17.909Z,11.80
2019-02-04T04:34:45.393Z,10.93
2019-02-04T04:37:12.892Z,11.00
2019-02-04T04:39:40.421Z,8.33
2019-02-04T04:42:08.298Z,10.23
2019-02-04T04:44:35.789Z,7.13
2019-02-04T04:47:03.465Z,11.40
2019-02-04T04:49:30.929Z,10.17
2019-02-04T04:51:58.426Z,6.30
2019-02-04T04:54:25.942Z,3.97
2019-02-04T04:56:53.440Z,5.63
2019-02-04T04:59:20.928Z,7.37
2019-02-04T05:01:48.447Z,8.20
2019-02-04T05:04:15.933Z,11.30
2019-02-04T05:06:43.417Z,9.73
2019-02-04T05:09:10.957Z,11.33
2019-02-04T05:11:38.465Z,13.13
2019-02-04T05:14:05.965Z,10.27
2019-02-04T05:16:33.498Z,12.63
2019-02-04T05:19:01.018Z,13.10
2019-02-04T05:21:28.505Z,13.77
2019-02-04T05:23:57.151Z,9.17
2019-02-04T05:26:24.651Z,15.67
2019-02-04T05:28:52.141Z,19.03
2019-02-04T05:31:19.902Z,11.60
2019-02-04T05:33:47.387Z,18.40
2019-02-04T05:36:14.877Z,15.00
2019-02-04T05:38:42.391Z,13.47
2019-02-04T05:41:09.893Z,13.33
2019-02-04T05:43:37.391Z,14.90
2019-02-04T05:46:04.969Z,18.27
2019-02-04T05:48:32.671Z,19.30
2019-02-04T05:51:00.146Z,17.43
2019-02-04T05:53:27.653Z,9.77
2019-02-04T05:55:55.150Z,12.13
2019-02-04T05:58:22.659Z,16.07
2019-02-04T06:00:50.799Z,17.33
2019-02-04T06:03:18.269Z,13.00
2019-02-04T06:05:45.985Z,9.47
2019-02-04T06:08:13.486Z,10.07
2019-02-04T06:10:41.011Z,12.30
2019-02-04T06:13:08.507Z,8.03
2019-02-04T06:15:35.993Z,7.23
2019-02-04T06:18:03.658Z,9.07
2019-02-04T06:20:31.173Z,14.50
2019-02-04T06:22:58.974Z,12.30
2019-02-04T06:25:26.501Z,11.60
2019-02-04T06:27:54.091Z,21.13
2019-02-04T06:30:21.611Z,7.10
2019-02-04T06:32:49.149Z,11.07
2019-02-04T06:35:16.732Z,10.90
2019-02-04T06:37:46.651Z,8.73
2019-02-04T06:40:14.149Z,11.43
2019-02-04T06:42:41.641Z,13.33
2019-02-04T06:45:10.637Z,13.50
2019-02-04T06:47:38.570Z,9.63
2019-02-04T06:50:08.131Z,21.73
2019-02-04T06:52:35.629Z,14.87
2019-02-04T06:55:04.497Z,19.27
2019-02-04T06:57:31.988Z,18.87
2019-02-04T06:59:59.484Z,13.37
2019-02-04T07:02:27.016Z,15.90
2019-02-04T07:04:54.509Z,10.07
2019-02-04T07:07:22.003Z,22.47
2019-02-04T07:09:49.915Z,13.17
2019-02-04T07:12:17.405Z,18.17
2019-02-04T07:14:44.898Z,19.23
2019-02-04T07:17:12.415Z,17.60
2019-02-04T07:19:39.939Z,16.13
2019-02-04T07:22:07.435Z,18.00
2019-02-04T07:24:42.521Z,19.33
2019-02-04T07:27:04.253Z,33.53
2019-02-04T07:29:31.741Z,26.90
2019-02-04T07:31:59.428Z,17.40
2019-02-04T07:34:26.915Z,25.60
2019-02-04T07:36:54.387Z,23.23
2019-02-04T07:39:21.927Z,19.87
2019-02-04T07:41:49.407Z,19.63
2019-02-04T07:44:16.907Z,26.17
2019-02-04T07:46:44.399Z,23.57
2019-02-04T07:49:11.995Z,27.67
2019-02-04T07:51:39.581Z,20.97
2019-02-04T07:54:07.086Z,20.10
2019-02-04T07:56:34.595Z,23.67
2019-02-04T07:59:02.132Z,25.27
2019-02-04T08:01:30.040Z,25.47
2019-02-04T08:03:57.525Z,24.57
2019-02-04T08:06:25.040Z,27.43
2019-02-04T08:08:52.525Z,29.07
2019-02-04T08:11:20.038Z,26.47
2019-02-04T08:13:47.744Z,19.90
2019-02-04T08:16:15.253Z,20.30
2019-02-04T08:18:43.152Z,22.47
2019-02-04T08:21:10.684Z,27.47
2019-02-04T08:23:38.164Z,24.53
2019-02-04T08:26:05.652Z,33.63
2019-02-04T08:28:33.158Z,28.07
2019-02-04T08:31:00.661Z,26.77
2019-02-04T08:33:28.176Z,24.07
2019-02-04T08:35:56.053Z,27.87
2019-02-04T08:38:23.554Z,26.53
2019-02-04T08:40:51.093Z,35.30
2019-02-04T08:43:18.595Z,31.77
2019-02-04T08:45:46.074Z,26.90
2019-02-04T08:48:13.589Z,27.57
2019-02-04T08:50:41.120Z,23.07
2019-02-04T08:53:08.607Z,29.00
2019-02-04T08:55:36.509Z,28.33
2019-02-04T08:58:04.778Z,28.40
2019-02-04T09:00:32.314Z,33.67
2019-02-04T09:02:59.854Z,30.67
2019-02-04T09:05:27.367Z,26.90
2019-02-04T09:07:54.934Z,30.83
2019-02-04T09:10:32.114Z,24.27
2019-02-04T09:13:00.291Z,26.20
2019-02-04T09:15:27.871Z,35.03
2019-02-04T09:17:55.784Z,24.63
2019-02-04T09:20:23.623Z,27.93
2019-02-04T09:22:51.168Z,36.30
2019-02-04T09:25:19.092Z,25.83
2019-02-04T09:27:47.079Z,31.87
2019-02-04T09:30:17.242Z,24.87
2019-02-04T09:32:44.744Z,26.37
2019-02-04T09:35:13.653Z,27.60
2019-02-04T09:37:41.194Z,33.93
2019-02-04T09:40:12.058Z,30.63
2019-02-04T09:42:39.616Z,32.90
2019-02-04T09:45:09.836Z,25.27
2019-02-04T09:47:37.379Z,29.07
2019-02-04T09:50:05.940Z,30.87
2019-02-04T09:52:33.438Z,29.30
2019-02-04T09:55:00.951Z,31.13
2019-02-04T09:57:28.453Z,33.90
2019-02-04T09:59:56.132Z,37.07
2019-02-04T10:02:23.924Z,33.80
2019-02-04T10:04:51.422Z,24.23
2019-02-04T10:07:18.960Z,26.60
2019-02-04T10:09:46.477Z,24.93
2019-02-04T10:12:14.022Z,24.50
2019-02-04T10:14:41.571Z,25.80
2019-02-04T10:17:09.574Z,24.23
2019-02-04T10:19:37.142Z,28.57
2019-02-04T10:22:04.819Z,25.57
2019-02-04T10:24:32.307Z,32.80
2019-02-04T10:26:59.821Z,25.80
2019-02-04T10:29:27.372Z,30.23
2019-02-04T10:31:54.863Z,23.63
2019-02-04T10:34:22.731Z,30.13
2019-02-04T10:36:50.261Z,26.97
2019-02-04T10:39:17.792Z,23.40
2019-02-04T10:41:45.295Z,20.13
2019-02-04T10:44:12.955Z,28.43
2019-02-04T10:46:42.684Z,31.97
2019-02-04T10:49:10.205Z,30.50
2019-02-04T10:51:37.691Z,34.07
2019-02-04T10:54:05.232Z,26.57
2019-02-04T10:56:32.817Z,30.23
2019-02-04T10:59:00.348Z,27.70
2019-02-04T11:01:27.882Z,33.90
2019-02-04T11:03:55.391Z,30.93
2019-02-04T11:06:22.869Z,28.43
2019-02-04T11:08:50.786Z,42.10
2019-02-04T11:11:18.311Z,32.63
2019-02-04T11:13:45.810Z,32.23
2019-02-04T11:16:13.345Z,28.83
2019-02-04T11:18:40.923Z,32.20
2019-02-04T11:21:08.464Z,41.70
2019-02-04T11:23:36.181Z,28.97
2019-02-04T11:26:03.889Z,41.33
2019-02-04T11:28:31.440Z,38.57
2019-02-04T11:31:01.235Z,34.90
2019-02-04T11:33:28.746Z,31.33
2019-02-04T11:35:56.262Z,28.53
2019-02-04T11:38:23.744Z,25.90
2019-02-04T11:40:51.685Z,26.50
2019-02-04T11:43:19.198Z,28.60
2019-02-04T11:45:46.685Z,27.37
2019-02-04T11:48:15.113Z,33.70
2019-02-04T11:50:42.614Z,27.50
2019-02-04T11:53:10.219Z,44.63
2019-02-04T11:55:37.726Z,39.33
2019-02-04T11:58:07.810Z,34.63
2019-02-04T12:00:35.327Z,29.57
2019-02-04T12:03:03.564Z,30.83
2019-02-04T12:05:31.036Z,49.57
2019-02-04T12:07:58.614Z,30.10
2019-02-04T12:10:40.094Z,35.10
2019-02-04T12:13:07.648Z,32.13
2019-02-04T12:15:35.197Z,36.30
2019-02-04T12:18:02.845Z,30.73
2019-02-04T12:20:30.426Z,36.77
2019-02-04T12:22:58.112Z,29.23
2019-02-04T12:25:25.868Z,34.30
2019-02-04T12:27:54.618Z,27.87
2019-02-04T12:30:27.378Z,25.17
2019-02-04T12:32:55.844Z,31.03
2019-02-04T12:35:23.376Z,27.57
2019-02-04T12:37:50.972Z,32.80
2019-02-04T12:40:18.572Z,32.37
2019-02-04T12:42:46.136Z,38.33
2019-02-04T12:45:19.594Z,31.03
2019-02-04T12:47:47.229Z,31.80
2019-02-04T12:50:15.082Z,36.03
2019-02-04T12:52:42.972Z,30.10
2019-02-04T12:55:12.972Z,44.57
2019-02-04T12:57:40.500Z,35.60
2019-02-04T13:00:11.222Z,42.20
2019-02-04T13:02:38.740Z,43.00
2019-02-04T13:05:07.731Z,39.73
2019-02-04T13:07:35.280Z,41.50
2019-02-04T13:10:03.350Z,38.10
2019-02-04T13:12:30.912Z,37.27
2019-02-04T13:14:58.784Z,35.83
2019-02-04T13:17:26.940Z,37.37
2019-02-04T13:19:54.668Z,43.80
2019-02-04T13:22:22.250Z,32.83
2019-02-04T13:24:49.894Z,38.40
2019-02-04T13:27:17.462Z,31.90
2019-02-04T13:29:45.008Z,33.37
2019-02-04T13:32:12.766Z,36.83
2019-02-04T13:34:40.304Z,32.70
2019-02-04T13:37:07.875Z,41.60
2019-02-04T13:39:35.664Z,35.37
2019-02-04T13:42:03.409Z,34.73
2019-02-04T13:44:30.988Z,37.80
2019-02-04T13:46:58.572Z,38.37
2019-02-04T13:49:26.076Z,37.07
2019-02-04T13:51:57.863Z,36.10
2019-02-04T13:54:25.398Z,35.53
2019-02-04T13:56:52.880Z,38.60
2019-02-04T13:59:20.410Z,43.13
2019-02-04T14:01:47.922Z,45.77
2019-02-04T14:04:15.697Z,43.27
2019-02-04T14:06:43.326Z,48.03
2019-02-04T14:09:18.350Z,47.90
2019-02-04T14:11:45.874Z,49.83
2019-02-04T14:14:13.438Z,55.27
2019-02-04T14:16:40.944Z,52.07
2019-02-04T14:19:08.465Z,59.80
2019-02-04T14:21:36.016Z,73.50
2019-02-04T14:24:03.526Z,73.97
2019-02-04T14:26:31.011Z,74.83
2019-02-04T14:28:58.555Z,58.30
2019-02-04T14:31:26.066Z,67.10
2019-02-04T14:33:54.000Z,75.33
2019-02-04T14:36:21.546Z,74.20
2019-02-04T14:38:49.050Z,60.90
2019-02-04T14:41:16.555Z,63.33
2019-02-04T14:43:53.594Z,64.20
2019-02-04T14:46:42.458Z,58.63
2019-02-04T14:49:45.838Z,59.63
2019-02-04T14:52:47.342Z,61.67
2019-02-04T14:56:05.870Z,64.60
2019-02-04T14:58:53.565Z,62.57
2019-02-04T15:02:05.050Z,60.20
2019-02-04T15:04:54.594Z,66.10
2019-02-04T15:08:06.070Z,70.77
2019-02-04T15:11:24.174Z,162.40
2019-02-04T15:14:46.171Z,77.87
2019-02-04T15:17:47.466Z,55.63
2019-02-04T15:20:39.313Z,61.80
2019-02-04T15:23:51.750Z,68.43
2019-02-04T15:27:06.076Z,67.57
2019-02-04T15:30:04.750Z,72.47
2019-02-04T15:33:19.606Z,70.27
2019-02-04T15:36:12.011Z,78.00
2019-02-04T15:39:16.468Z,68.13
2019-02-04T15:42:32.775Z,65.03
2019-02-04T15:45:28.898Z,67.57
2019-02-04T15:48:17.856Z,58.83
2019-02-04T15:51:00.026Z,64.00
2019-02-04T15:53:27.564Z,72.20
2019-02-04T15:55:55.225Z,88.80
2019-02-04T15:58:22.762Z,87.37
2019-02-04T16:00:50.282Z,94.37
2019-02-04T16:03:18.304Z,101.90
2019-02-04T16:05:46.633Z,99.27
2019-02-04T16:08:14.278Z,93.50
2019-02-04T16:10:41.984Z,95.23
2019-02-04T16:13:09.594Z,100.33
2019-02-04T16:15:37.084Z,219.30
2019-02-04T16:18:04.818Z,282.10
2019-02-04T16:20:32.368Z,240.10
2019-02-04T16:22:59.944Z,125.00
2019-02-04T16:25:27.520Z,97.20
2019-02-04T16:27:55.294Z,123.20
2019-02-04T16:30:22.798Z,98.73
2019-02-04T16:32:52.848Z,93.63
2019-02-04T16:35:19.622Z,85.50
2019-02-04T16:37:48.274Z,115.07
2019-02-04T16:40:17.622Z,115.87
2019-02-04T16:42:45.126Z,120.60
2019-02-04T16:45:13.200Z,111.33
2019-02-04T16:47:40.831Z,116.83
2019-02-04T16:50:12.498Z,98.13
2019-02-04T16:52:40.028Z,119.67
2019-02-04T16:55:07.534Z,104.00
2019-02-04T16:57:35.146Z,84.87
2019-02-04T17:00:03.307Z,73.13
2019-02-04T17:02:30.798Z,77.83
2019-02-04T17:04:58.378Z,88.20
2019-02-04T17:07:25.922Z,86.10
2019-02-04T17:09:53.422Z,72.10
2019-02-04T17:12:20.949Z,79.53
2019-02-04T17:14:48.538Z,85.47
2019-02-04T17:17:16.034Z,87.73
2019-02-04T17:19:43.554Z,96.07
2019-02-04T17:22:11.098Z,91.67
2019-02-04T17:24:38.928Z,96.30
2019-02-04T17:27:06.430Z,87.57
2019-02-04T17:29:33.946Z,90.13
2019-02-04T17:32:01.439Z,68.80
2019-02-04T17:34:28.977Z,45.97
2019-02-04T17:36:56.478Z,39.80
2019-02-04T17:39:23.980Z,45.47
2019-02-04T17:41:51.574Z,55.87
2019-02-04T17:44:19.154Z,38.53
2019-02-04T17:46:46.675Z,42.97
2019-02-04T17:49:14.180Z,62.00
2019-02-04T17:51:41.670Z,91.17
2019-02-04T17:54:09.202Z,70.20
2019-02-04T17:56:36.729Z,82.30
2019-02-04T17:59:04.641Z,76.27
2019-02-04T18:01:32.164Z,73.37
2019-02-04T18:03:59.796Z,68.13
2019-02-04T18:06:27.356Z,59.80
2019-02-04T18:08:54.920Z,59.47
2019-02-04T18:11:22.453Z,65.37
2019-02-04T18:13:50.010Z,69.77
2019-02-04T18:16:17.517Z,85.57
2019-02-04T18:18:45.034Z,98.97
2019-02-04T18:21:12.562Z,81.03
2019-02-04T18:23:45.930Z,61.43
2019-02-04T18:26:09.417Z,41.67
2019-02-04T18:28:37.413Z,22.27
2019-02-04T18:31:04.961Z,28.07
2019-02-04T18:33:32.934Z,29.90
2019-02-04T18:36:00.463Z,30.27
2019-02-04T18:38:27.993Z,26.10
2019-02-04T18:40:55.934Z,26.67
2019-02-04T18:43:23.434Z,28.77
2019-02-04T18:45:50.944Z,29.93
2019-02-04T18:48:18.495Z,34.77
2019-02-04T18:50:46.414Z,41.00
2019-02-04T18:53:13.926Z,55.63
2019-02-04T18:55:41.496Z,34.67
2019-02-04T18:58:09.186Z,39.67
2019-02-04T19:00:36.697Z,39.00
2019-02-04T19:03:16.507Z,30.17
2019-02-04T19:05:34.419Z,37.57
2019-02-04T19:08:01.980Z,28.47
2019-02-04T19:10:29.520Z,21.13
2019-02-04T19:12:57.018Z,30.37
2019-02-04T19:15:24.611Z,25.37
2019-02-04T19:17:54.605Z,28.80
2019-02-04T19:20:22.676Z,51.83
2019-02-04T19:22:50.339Z,31.53
2019-02-04T19:25:18.603Z,22.73
2019-02-04T19:27:46.545Z,31.97
2019-02-04T19:30:26.249Z,52.90
2019-02-04T19:32:54.062Z,41.03
2019-02-04T19:35:21.553Z,31.80
2019-02-04T19:37:49.122Z,23.70
2019-02-04T19:40:16.933Z,26.40
2019-02-04T19:42:44.565Z,24.67
2019-02-04T19:45:15.109Z,24.10
2019-02-04T19:47:44.287Z,24.13
2019-02-04T19:50:15.790Z,36.10
2019-02-04T19:52:43.378Z,41.57
2019-02-04T19:55:11.146Z,43.33
2019-02-04T19:57:38.745Z,36.90
2019-02-04T20:00:10.208Z,39.80
2019-02-04T20:02:37.705Z,39.37
2019-02-04T20:05:07.210Z,44.13
2019-02-04T20:07:34.762Z,65.57
2019-02-04T20:10:02.874Z,63.67
2019-02-04T20:12:30.369Z,70.83
2019-02-04T20:14:57.914Z,71.40
2019-02-04T20:17:25.441Z,194.60
2019-02-04T20:19:52.945Z,124.53
2019-02-04T20:22:20.871Z,66.43
2019-02-04T20:24:48.471Z,41.13
2019-02-04T20:27:16.026Z,37.50
2019-02-04T20:29:43.526Z,40.17
2019-02-04T20:32:11.202Z,46.60
2019-02-04T20:34:38.724Z,43.37
2019-02-04T20:37:06.225Z,71.53
2019-02-04T20:39:33.961Z,69.43
2019-02-04T20:42:01.889Z,69.30
2019-02-04T20:44:29.377Z,65.83
2019-02-04T20:46:57.231Z,61.80
2019-02-04T20:49:24.761Z,52.03
2019-02-04T20:51:52.283Z,53.63
2019-02-04T20:54:20.785Z,52.70
2019-02-04T20:56:49.169Z,45.63
2019-02-04T20:59:16.672Z,47.93
2019-02-04T21:01:44.194Z,45.43
2019-02-04T21:04:11.697Z,43.77
2019-02-04T21:06:39.227Z,43.10
2019-02-04T21:09:08.799Z,58.30
2019-02-04T21:11:36.301Z,76.13
2019-02-04T21:14:04.462Z,77.80
2019-02-04T21:16:32.002Z,68.73
2019-02-04T21:18:59.514Z,71.67
2019-02-04T21:21:27.045Z,83.90
2019-02-04T21:23:54.573Z,71.37
2019-02-04T21:26:22.164Z,56.43
2019-02-04T21:28:49.938Z,47.80
2019-02-04T21:31:17.674Z,42.97
2019-02-04T21:33:46.021Z,41.77
2019-02-04T21:36:13.554Z,48.77
2019-02-04T21:38:41.083Z,41.20
2019-02-04T21:41:08.633Z,45.73
2019-02-04T21:43:36.137Z,44.83
2019-02-04T21:46:03.953Z,35.20
2019-02-04T21:48:31.915Z,29.70
2019-02-04T21:50:59.421Z,26.50
2019-02-04T21:53:26.970Z,23.93
2019-02-04T21:55:54.528Z,31.43
2019-02-04T21:58:22.025Z,25.77
2019-02-04T22:00:49.611Z,25.67
2019-02-04T22:03:17.161Z,26.20
2019-02-04T22:05:45.068Z,18.03
2019-02-04T22:08:12.583Z,18.97
2019-02-04T22:10:40.550Z,23.93
2019-02-04T22:13:08.117Z,19.67
2019-02-04T22:15:36.028Z,22.23
2019-02-04T22:18:05.649Z,22.50
2019-02-04T22:20:33.615Z,18.60
2019-02-04T22:23:01.171Z,24.00
2019-02-04T22:25:28.735Z,22.80
2019-02-04T22:27:56.233Z,23.37
2019-02-04T22:30:25.685Z,27.90
2019-02-04T22:32:53.285Z,34.50
2019-02-04T22:35:20.797Z,32.00
2019-02-04T22:37:48.303Z,27.10
2019-02-04T22:40:18.486Z,25.67
2019-02-04T22:42:45.997Z,25.30
2019-02-04T22:45:13.849Z,31.30
2019-02-04T22:47:41.533Z,33.10
2019-02-04T22:50:34.707Z,31.23
2019-02-04T22:53:02.667Z,27.77
2019-02-04T22:55:32.298Z,31.27
2019-02-04T22:57:59.544Z,31.90
2019-02-04T23:00:46.009Z,34.97
2019-02-04T23:03:14.537Z,30.10
2019-02-04T23:05:42.045Z,30.93
2019-02-04T23:08:09.577Z,32.63
2019-02-04T23:10:37.080Z,36.40
2019-02-04T23:13:05.139Z,35.77
2019-02-04T23:15:32.786Z,43.57
2019-02-04T23:18:00.295Z,39.83
2019-02-04T23:20:28.099Z,40.13
2019-02-04T23:22:55.644Z,41.37
2019-02-04T23:25:23.485Z,40.80
2019-02-04T23:27:50.985Z,42.37
2019-02-04T23:30:18.665Z,43.07
2019-02-04T23:32:46.179Z,49.37
2019-02-04T23:35:13.756Z,48.83
2019-02-04T23:37:41.625Z,38.53
2019-02-04T23:40:09.363Z,46.57
2019-02-04T23:42:36.861Z,39.60
2019-02-04T23:45:05.287Z,31.70
2019-02-04T23:47:32.779Z,29.70
2019-02-04T23:50:01.198Z,28.53
2019-02-04T23:52:28.748Z,28.60
2019-02-04T23:54:56.253Z,25.13
2019-02-04T23:57:23.823Z,28.97
2019-02-04T23:59:51.341Z,31.53
